sensor_id;sensor_type;location;lat;lon;timestamp;pressure;altitude;pressure_sealevel;temperature;humidity
57628;BME280;43451;49.060;10.616;2023-05-27T00:00:12;97476.44;;;12.70;83.23
57628;BME280;43451;49.060;10.616;2023-05-27T00:02:38;97472.56;;;12.75;83.18
57628;BME280;43451;49.060;10.616;2023-05-27T00:05:07;97469.44;;;12.66;84.04
57628;BME280;43451;49.060;10.616;2023-05-27T00:07:37;97474.47;;;12.67;83.76
57628;BME280;43451;49.060;10.616;2023-05-27T00:10:04;97461.63;;;12.61;83.85
57628;BME280;43451;49.060;10.616;2023-05-27T00:12:31;97468.19;;;12.52;85.20
57628;BME280;43451;49.060;10.616;2023-05-27T00:14:57;97463.09;;;12.37;86.53
57628;BME280;43451;49.060;10.616;2023-05-27T00:17:32;97461.94;;;12.34;87.02
57628;BME280;43451;49.060;10.616;2023-05-27T00:19:59;97468.94;;;12.28;87.21
57628;BME280;43451;49.060;10.616;2023-05-27T00:22:45;97472.78;;;12.23;88.13
57628;BME280;43451;49.060;10.616;2023-05-27T00:25:18;97468.50;;;12.22;87.53
57628;BME280;43451;49.060;10.616;2023-05-27T00:28:01;97465.38;;;12.20;87.78
57628;BME280;43451;49.060;10.616;2023-05-27T00:30:27;97466.97;;;12.21;87.63
57628;BME280;43451;49.060;10.616;2023-05-27T00:32:55;97457.59;;;12.19;87.93
57628;BME280;43451;49.060;10.616;2023-05-27T00:35:21;97458.38;;;12.23;87.71
57628;BME280;43451;49.060;10.616;2023-05-27T00:37:54;97456.03;;;12.18;87.99
57628;BME280;43451;49.060;10.616;2023-05-27T00:40:34;97460.69;;;12.21;88.28
57628;BME280;43451;49.060;10.616;2023-05-27T00:43:17;97457.59;;;12.15;88.43
57628;BME280;43451;49.060;10.616;2023-05-27T00:45:48;97456.00;;;12.14;88.80
57628;BME280;43451;49.060;10.616;2023-05-27T00:48:13;97452.91;;;12.08;88.73
57628;BME280;43451;49.060;10.616;2023-05-27T00:50:58;97460.31;;;12.12;88.96
57628;BME280;43451;49.060;10.616;2023-05-27T00:53:28;97449.78;;;12.17;88.03
57628;BME280;43451;49.060;10.616;2023-05-27T00:56:15;97455.25;;;12.21;87.81
57628;BME280;43451;49.060;10.616;2023-05-27T00:58:42;97460.34;;;12.29;87.86
57628;BME280;43451;49.060;10.616;2023-05-27T01:01:09;97452.16;;;12.19;90.21
57628;BME280;43451;49.060;10.616;2023-05-27T01:04:03;97449.84;;;12.28;90.53
57628;BME280;43451;49.060;10.616;2023-05-27T01:12:02;97447.09;;;12.21;88.49
57628;BME280;43451;49.060;10.616;2023-05-27T01:14:33;97433.47;;;12.21;91.51
57628;BME280;43451;49.060;10.616;2023-05-27T01:17:05;97438.97;;;12.28;89.87
57628;BME280;43451;49.060;10.616;2023-05-27T01:19:41;97435.88;;;12.40;89.21
57628;BME280;43451;49.060;10.616;2023-05-27T01:22:11;97434.28;;;12.32;88.63
57628;BME280;43451;49.060;10.616;2023-05-27T01:24:37;97430.38;;;12.29;87.74
57628;BME280;43451;49.060;10.616;2023-05-27T01:27:03;97429.66;;;12.43;86.50
57628;BME280;43451;49.060;10.616;2023-05-27T01:29:30;97430.78;;;12.31;87.13
57628;BME280;43451;49.060;10.616;2023-05-27T01:32:16;97428.06;;;12.35;86.66
57628;BME280;43451;49.060;10.616;2023-05-27T01:34:56;97424.97;;;12.44;86.08
57628;BME280;43451;49.060;10.616;2023-05-27T01:37:25;97428.47;;;12.44;86.23
57628;BME280;43451;49.060;10.616;2023-05-27T01:40:07;97426.16;;;12.46;86.06
57628;BME280;43451;49.060;10.616;2023-05-27T01:42:35;97419.53;;;12.51;85.51
57628;BME280;43451;49.060;10.616;2023-05-27T01:45:05;97424.22;;;12.43;86.63
57628;BME280;43451;49.060;10.616;2023-05-27T01:47:36;97415.22;;;12.39;85.44
57628;BME280;43451;49.060;10.616;2023-05-27T01:50:09;97431.97;;;12.34;86.50
57628;BME280;43451;49.060;10.616;2023-05-27T01:52:43;97429.59;;;12.22;87.84
57628;BME280;43451;49.060;10.616;2023-05-27T01:55:09;97430.34;;;12.15;86.81
57628;BME280;43451;49.060;10.616;2023-05-27T01:57:43;97422.53;;;12.06;88.34
57628;BME280;43451;49.060;10.616;2023-05-27T02:00:09;97434.59;;;12.05;88.78
57628;BME280;43451;49.060;10.616;2023-05-27T02:02:35;97435.34;;;11.99;88.34
57628;BME280;43451;49.060;10.616;2023-05-27T02:05:00;97428.72;;;12.00;89.23
57628;BME280;43451;49.060;10.616;2023-05-27T02:07:25;97418.94;;;11.88;89.00
57628;BME280;43451;49.060;10.616;2023-05-27T02:09:52;97419.25;;;11.79;90.33
57628;BME280;43451;49.060;10.616;2023-05-27T02:12:17;97422.34;;;11.71;90.99
57628;BME280;43451;49.060;10.616;2023-05-27T02:14:42;97421.22;;;11.79;89.14
57628;BME280;43451;49.060;10.616;2023-05-27T02:17:10;97424.69;;;11.72;89.98
57628;BME280;43451;49.060;10.616;2023-05-27T02:19:37;97421.19;;;11.75;89.11
57628;BME280;43451;49.060;10.616;2023-05-27T02:22:05;97425.84;;;11.68;88.90
57628;BME280;43451;49.060;10.616;2023-05-27T02:24:30;97425.47;;;11.73;89.53
57628;BME280;43451;49.060;10.616;2023-05-27T02:26:56;97420.41;;;11.75;88.57
57628;BME280;43451;49.060;10.616;2023-05-27T02:29:28;97427.75;;;11.63;88.52
57628;BME280;43451;49.060;10.616;2023-05-27T02:31:57;97424.22;;;11.59;90.03
57628;BME280;43451;49.060;10.616;2023-05-27T02:34:33;97424.56;;;11.51;90.49
57628;BME280;43451;49.060;10.616;2023-05-27T02:37:03;97420.31;;;11.53;90.35
57628;BME280;43451;49.060;10.616;2023-05-27T02:39:32;97424.22;;;11.56;90.07
57628;BME280;43451;49.060;10.616;2023-05-27T02:42:00;97423.44;;;11.55;89.94
57628;BME280;43451;49.060;10.616;2023-05-27T02:44:34;97420.63;;;11.41;90.41
57628;BME280;43451;49.060;10.616;2023-05-27T02:47:04;97418.25;;;11.36;90.75
57628;BME280;43451;49.060;10.616;2023-05-27T02:49:31;97410.78;;;11.22;91.62
57628;BME280;43451;49.060;10.616;2023-05-27T02:51:56;97418.91;;;11.19;92.56
57628;BME280;43451;49.060;10.616;2023-05-27T02:54:36;97423.56;;;11.14;92.69
57628;BME280;43451;49.060;10.616;2023-05-27T02:57:01;97413.44;;;11.11;93.36
57628;BME280;43451;49.060;10.616;2023-05-27T02:59:27;97420.69;;;10.97;94.15
57628;BME280;43451;49.060;10.616;2023-05-27T03:01:57;97429.56;;;10.90;95.79
57628;BME280;43451;49.060;10.616;2023-05-27T03:04:30;97430.31;;;10.87;95.23
57628;BME280;43451;49.060;10.616;2023-05-27T03:06:57;97421.31;;;10.76;96.19
57628;BME280;43451;49.060;10.616;2023-05-27T03:09:27;97418.44;;;10.61;96.78
57628;BME280;43451;49.060;10.616;2023-05-27T03:11:52;97416.94;;;10.64;97.05
57628;BME280;43451;49.060;10.616;2023-05-27T03:14:19;97420.78;;;10.59;97.02
57628;BME280;43451;49.060;10.616;2023-05-27T03:16:46;97415.34;;;10.59;97.64
57628;BME280;43451;49.060;10.616;2023-05-27T03:19:19;97426.13;;;10.52;97.46
57628;BME280;43451;49.060;10.616;2023-05-27T03:21:45;97418.28;;;10.43;96.95
57628;BME280;43451;49.060;10.616;2023-05-27T03:24:16;97414.25;;;10.30;98.33
57628;BME280;43451;49.060;10.616;2023-05-27T03:26:43;97423.28;;;10.38;97.49
57628;BME280;43451;49.060;10.616;2023-05-27T03:31:56;97414.88;;;10.16;98.53
57628;BME280;43451;49.060;10.616;2023-05-27T03:34:22;97418.75;;;10.15;98.77
57628;BME280;43451;49.060;10.616;2023-05-27T03:37:00;97423.69;;;10.06;99.33
57628;BME280;43451;49.060;10.616;2023-05-27T03:39:30;97419.06;;;10.10;99.63
57628;BME280;43451;49.060;10.616;2023-05-27T03:41:56;97421.03;;;10.13;100.00
57628;BME280;43451;49.060;10.616;2023-05-27T03:44:22;97412.88;;;10.13;100.00
57628;BME280;43451;49.060;10.616;2023-05-27T03:46:53;97419.47;;;10.12;99.57
57628;BME280;43451;49.060;10.616;2023-05-27T03:49:18;97418.56;;;10.01;100.00
57628;BME280;43451;49.060;10.616;2023-05-27T03:51:58;97420.78;;;9.92;100.00
57628;BME280;43451;49.060;10.616;2023-05-27T03:54:27;97420.88;;;9.99;100.00
57628;BME280;43451;49.060;10.616;2023-05-27T03:56:56;97416.56;;;9.94;99.94
57628;BME280;43451;49.060;10.616;2023-05-27T03:59:25;97420.88;;;9.99;100.00
57628;BME280;43451;49.060;10.616;2023-05-27T04:01:52;97420.97;;;10.06;99.69
57628;BME280;43451;49.060;10.616;2023-05-27T04:04:18;97422.00;;;9.98;100.00
57628;BME280;43451;49.060;10.616;2023-05-27T04:06:43;97421.75;;;10.07;100.00
57628;BME280;43451;49.060;10.616;2023-05-27T04:09:09;97417.09;;;10.07;99.83
57628;BME280;43451;49.060;10.616;2023-05-27T04:11:37;97418.63;;;10.08;99.67
57628;BME280;43451;49.060;10.616;2023-05-27T04:14:32;97416.34;;;10.10;99.56
57628;BME280;43451;49.060;10.616;2023-05-27T04:16:58;97418.00;;;10.18;99.34
57628;BME280;43451;49.060;10.616;2023-05-27T04:19:24;97415.34;;;10.26;99.10
57628;BME280;43451;49.060;10.616;2023-05-27T04:21:51;97421.94;;;10.25;99.76
57628;BME280;43451;49.060;10.616;2023-05-27T04:24:20;97409.25;;;10.32;99.31
57628;BME280;43451;49.060;10.616;2023-05-27T04:26:50;97414.63;;;10.29;99.21
57628;BME280;43451;49.060;10.616;2023-05-27T04:29:19;97416.50;;;10.25;99.93
57628;BME280;43451;49.060;10.616;2023-05-27T04:31:51;97411.53;;;10.30;100.00
57628;BME280;43451;49.060;10.616;2023-05-27T04:34:24;97407.31;;;10.33;100.00
57628;BME280;43451;49.060;10.616;2023-05-27T04:36:49;97411.94;;;10.29;100.00
57628;BME280;43451;49.060;10.616;2023-05-27T04:39:25;97410.44;;;10.35;100.00
57628;BME280;43451;49.060;10.616;2023-05-27T04:41:51;97417.34;;;10.29;100.00
57628;BME280;43451;49.060;10.616;2023-05-27T04:44:23;97415.84;;;10.31;100.00
57628;BME280;43451;49.060;10.616;2023-05-27T04:46:58;97424.47;;;10.40;100.00
57628;BME280;43451;49.060;10.616;2023-05-27T04:49:28;97426.81;;;10.42;100.00
57628;BME280;43451;49.060;10.616;2023-05-27T04:52:01;97432.72;;;10.51;100.00
57628;BME280;43451;49.060;10.616;2023-05-27T04:54:33;97416.13;;;10.60;100.00
57628;BME280;43451;49.060;10.616;2023-05-27T04:56:58;97420.00;;;10.62;100.00
57628;BME280;43451;49.060;10.616;2023-05-27T04:59:25;97420.13;;;10.73;100.00
57628;BME280;43451;49.060;10.616;2023-05-27T05:02:13;97424.03;;;10.76;100.00
57628;BME280;43451;49.060;10.616;2023-05-27T05:04:55;97424.13;;;10.90;100.00
57628;BME280;43451;49.060;10.616;2023-05-27T05:07:23;97418.00;;;11.00;100.00
57628;BME280;43451;49.060;10.616;2023-05-27T05:09:53;97423.59;;;11.22;100.00
57628;BME280;43451;49.060;10.616;2023-05-27T05:12:19;97422.88;;;11.32;98.85
57628;BME280;43451;49.060;10.616;2023-05-27T05:15:06;97424.50;;;11.40;95.93
57628;BME280;43451;49.060;10.616;2023-05-27T05:17:35;97416.41;;;11.54;94.03
57628;BME280;43451;49.060;10.616;2023-05-27T05:20:27;97412.66;;;11.77;93.38
57628;BME280;43451;49.060;10.616;2023-05-27T05:26:05;97420.13;;;11.87;90.21
57628;BME280;43451;49.060;10.616;2023-05-27T05:28:50;97426.00;;;12.00;88.75
57628;BME280;43451;49.060;10.616;2023-05-27T05:31:27;97429.53;;;12.07;87.51
57628;BME280;43451;49.060;10.616;2023-05-27T05:34:06;97419.81;;;12.14;87.13
57628;BME280;43451;49.060;10.616;2023-05-27T05:36:32;97418.28;;;12.23;86.96
57628;BME280;43451;49.060;10.616;2023-05-27T05:38:58;97430.38;;;12.33;85.73
57628;BME280;43451;49.060;10.616;2023-05-27T05:41:23;97427.66;;;12.26;85.27
57628;BME280;43451;49.060;10.616;2023-05-27T05:44:05;97424.56;;;12.27;88.11
57628;BME280;43451;49.060;10.616;2023-05-27T05:46:32;97431.19;;;12.37;89.07
57628;BME280;43451;49.060;10.616;2023-05-27T05:49:05;97428.09;;;12.46;87.75
57628;BME280;43451;49.060;10.616;2023-05-27T05:51:35;97427.34;;;12.60;86.52
57628;BME280;43451;49.060;10.616;2023-05-27T05:54:05;97432.81;;;12.67;84.42
57628;BME280;43451;49.060;10.616;2023-05-27T05:56:41;97424.63;;;12.74;83.75
57628;BME280;43451;49.060;10.616;2023-05-27T05:59:09;97423.47;;;12.86;83.17
57628;BME280;43451;49.060;10.616;2023-05-27T06:01:57;97423.09;;;12.94;84.20
57628;BME280;43451;49.060;10.616;2023-05-27T06:07:41;97424.25;;;13.15;77.96
57628;BME280;43451;49.060;10.616;2023-05-27T06:10:13;97427.78;;;13.26;79.81
57628;BME280;43451;49.060;10.616;2023-05-27T06:12:41;97425.06;;;13.33;77.56
57628;BME280;43451;49.060;10.616;2023-05-27T06:15:24;97422.69;;;13.50;74.30
57628;BME280;43451;49.060;10.616;2023-05-27T06:17:53;97429.28;;;13.59;73.55
57628;BME280;43451;49.060;10.616;2023-05-27T06:20:29;97427.34;;;13.60;74.84
57628;BME280;43451;49.060;10.616;2023-05-27T06:23:27;97432.00;;;13.74;71.79
57628;BME280;43451;49.060;10.616;2023-05-27T06:25:54;97425.72;;;13.80;67.77
57628;BME280;43451;49.060;10.616;2023-05-27T06:28:26;97424.09;;;14.01;67.94
57628;BME280;43451;49.060;10.616;2023-05-27T06:30:52;97421.66;;;14.21;68.41
57628;BME280;43451;49.060;10.616;2023-05-27T06:33:28;97430.13;;;14.44;64.69
57628;BME280;43451;49.060;10.616;2023-05-27T06:36:10;97425.41;;;14.59;65.27
57628;BME280;43451;49.060;10.616;2023-05-27T06:38:59;97436.22;;;14.73;65.80
57628;BME280;43451;49.060;10.616;2023-05-27T06:42:01;97428.41;;;14.75;60.76
57628;BME280;43451;49.060;10.616;2023-05-27T06:44:28;97434.63;;;14.79;61.37
57628;BME280;43451;49.060;10.616;2023-05-27T06:46:58;97438.50;;;14.85;60.57
57628;BME280;43451;49.060;10.616;2023-05-27T06:49:23;97433.44;;;14.80;58.22
57628;BME280;43451;49.060;10.616;2023-05-27T06:51:59;97437.78;;;14.74;58.46
57628;BME280;43451;49.060;10.616;2023-05-27T06:54:24;97430.69;;;14.80;60.95
57628;BME280;43451;49.060;10.616;2023-05-27T06:57:01;97436.16;;;14.88;58.71
57628;BME280;43451;49.060;10.616;2023-05-27T06:59:33;97431.41;;;14.92;58.20
57628;BME280;43451;49.060;10.616;2023-05-27T07:02:09;97422.84;;;14.86;57.84
57628;BME280;43451;49.060;10.616;2023-05-27T07:04:51;97428.13;;;15.11;57.84
57628;BME280;43451;49.060;10.616;2023-05-27T07:07:20;97428.22;;;15.00;58.07
57628;BME280;43451;49.060;10.616;2023-05-27T07:09:50;97431.69;;;15.08;59.40
57628;BME280;43451;49.060;10.616;2023-05-27T07:12:28;97421.81;;;15.18;60.04
57628;BME280;43451;49.060;10.616;2023-05-27T07:15:00;97427.97;;;15.32;58.75
57628;BME280;43451;49.060;10.616;2023-05-27T07:17:35;97423.94;;;15.41;56.54
57628;BME280;43451;49.060;10.616;2023-05-27T07:20:02;97426.22;;;15.49;56.06
57628;BME280;43451;49.060;10.616;2023-05-27T07:22:28;97421.09;;;15.55;55.68
57628;BME280;43451;49.060;10.616;2023-05-27T07:25:18;97433.50;;;15.63;57.53
57628;BME280;43451;49.060;10.616;2023-05-27T07:27:44;97433.78;;;15.76;57.62
57628;BME280;43451;49.060;10.616;2023-05-27T07:30:22;97427.06;;;15.84;57.29
57628;BME280;43451;49.060;10.616;2023-05-27T07:32:48;97427.41;;;15.90;55.75
57628;BME280;43451;49.060;10.616;2023-05-27T07:38:51;97425.38;;;15.94;55.66
57628;BME280;43451;49.060;10.616;2023-05-27T07:41:22;97424.19;;;15.95;55.83
57628;BME280;43451;49.060;10.616;2023-05-27T07:43:58;97420.59;;;16.01;54.55
57628;BME280;43451;49.060;10.616;2023-05-27T07:46:26;97417.84;;;16.01;54.74
57628;BME280;43451;49.060;10.616;2023-05-27T07:49:06;97421.69;;;16.08;55.05
57628;BME280;43451;49.060;10.616;2023-05-27T07:51:47;97418.78;;;16.22;54.47
57628;BME280;43451;49.060;10.616;2023-05-27T07:54:20;97418.44;;;16.16;53.82
57628;BME280;43451;49.060;10.616;2023-05-27T07:56:47;97418.00;;;16.21;54.36
57628;BME280;43451;49.060;10.616;2023-05-27T07:59:24;97411.75;;;16.21;54.79
57628;BME280;43451;49.060;10.616;2023-05-27T08:01:49;97411.22;;;16.30;53.00
57628;BME280;43451;49.060;10.616;2023-05-27T08:04:18;97417.47;;;16.34;53.62
57628;BME280;43451;49.060;10.616;2023-05-27T08:06:59;97409.63;;;16.32;53.85
57628;BME280;43451;49.060;10.616;2023-05-27T08:09:26;97406.38;;;16.41;53.78
57628;BME280;43451;49.060;10.616;2023-05-27T08:12:05;97408.91;;;16.55;53.76
57628;BME280;43451;49.060;10.616;2023-05-27T08:14:33;97400.59;;;16.62;54.39
57628;BME280;43451;49.060;10.616;2023-05-27T08:17:06;97402.13;;;16.63;55.50
57628;BME280;43451;49.060;10.616;2023-05-27T08:26:40;97393.97;;;16.87;52.71
57628;BME280;43451;49.060;10.616;2023-05-27T08:29:16;97397.06;;;16.89;53.38
57628;BME280;43451;49.060;10.616;2023-05-27T08:32:19;97394.50;;;17.02;52.87
57628;BME280;43451;49.060;10.616;2023-05-27T08:35:12;97390.88;;;17.08;51.16
57628;BME280;43451;49.060;10.616;2023-05-27T08:37:41;97381.03;;;17.11;52.21
57628;BME280;43451;49.060;10.616;2023-05-27T08:40:18;97379.94;;;17.28;53.66
57628;BME280;43451;49.060;10.616;2023-05-27T08:43:00;97375.25;;;17.49;54.62
57628;BME280;43451;49.060;10.616;2023-05-27T08:45:39;97368.38;;;17.60;52.70
57628;BME280;43451;49.060;10.616;2023-05-27T08:48:21;97366.41;;;17.81;52.68
57628;BME280;43451;49.060;10.616;2023-05-27T08:51:13;97368.69;;;17.86;53.11
57628;BME280;43451;49.060;10.616;2023-05-27T08:53:48;97365.28;;;17.98;52.12
57628;BME280;43451;49.060;10.616;2023-05-27T08:56:25;97372.50;;;17.92;51.42
57628;BME280;43451;49.060;10.616;2023-05-27T08:58:54;97363.66;;;17.81;50.48
57628;BME280;43451;49.060;10.616;2023-05-27T09:04:37;97359.06;;;17.94;51.72
57628;BME280;43451;49.060;10.616;2023-05-27T09:07:03;97354.13;;;18.05;52.09
57628;BME280;43451;49.060;10.616;2023-05-27T09:16:22;97355.59;;;18.46;51.30
57628;BME280;43451;49.060;10.616;2023-05-27T09:18:56;97350.38;;;18.68;49.68
57628;BME280;43451;49.060;10.616;2023-05-27T09:21:24;97353.03;;;18.72;48.14
57628;BME280;43451;49.060;10.616;2023-05-27T09:24:27;97352.63;;;18.73;48.68
57628;BME280;43451;49.060;10.616;2023-05-27T09:26:58;97352.88;;;18.95;48.58
57628;BME280;43451;49.060;10.616;2023-05-27T09:29:41;97347.19;;;19.02;48.31
57628;BME280;43451;49.060;10.616;2023-05-27T09:32:08;97343.56;;;19.06;48.52
57628;BME280;43451;49.060;10.616;2023-05-27T09:34:40;97343.91;;;19.08;47.49
57628;BME280;43451;49.060;10.616;2023-05-27T09:42:16;97337.84;;;19.29;46.06
57628;BME280;43451;49.060;10.616;2023-05-27T09:44:45;97336.63;;;19.30;42.66
57628;BME280;43451;49.060;10.616;2023-05-27T09:47:16;97330.59;;;19.35;44.56
57628;BME280;43451;49.060;10.616;2023-05-27T09:49:42;97328.63;;;19.36;45.29
57628;BME280;43451;49.060;10.616;2023-05-27T09:52:10;97323.53;;;19.34;45.02
57628;BME280;43451;49.060;10.616;2023-05-27T09:54:36;97322.91;;;19.43;43.85
57628;BME280;43451;49.060;10.616;2023-05-27T09:57:03;97322.91;;;19.43;41.88
57628;BME280;43451;49.060;10.616;2023-05-27T09:59:31;97320.06;;;19.46;40.89
57628;BME280;43451;49.060;10.616;2023-05-27T10:01:57;97325.38;;;19.54;43.03
57628;BME280;43451;49.060;10.616;2023-05-27T10:04:26;97329.22;;;19.56;43.39
57628;BME280;43451;49.060;10.616;2023-05-27T10:06:53;97315.91;;;19.55;43.39
57628;BME280;43451;49.060;10.616;2023-05-27T10:09:19;97318.44;;;19.62;41.34
57628;BME280;43451;49.060;10.616;2023-05-27T10:11:45;97313.09;;;19.71;41.14
57628;BME280;43451;49.060;10.616;2023-05-27T10:14:11;97318.50;;;19.75;40.37
57628;BME280;43451;49.060;10.616;2023-05-27T10:16:37;97318.63;;;19.71;41.20
57628;BME280;43451;49.060;10.616;2023-05-27T10:19:09;97304.22;;;19.92;41.96
57628;BME280;43451;49.060;10.616;2023-05-27T10:21:42;97303.88;;;19.90;42.02
57628;BME280;43451;49.060;10.616;2023-05-27T10:24:10;97304.75;;;20.00;43.22
57628;BME280;43451;49.060;10.616;2023-05-27T10:26:40;97302.78;;;20.13;44.37
57628;BME280;43451;49.060;10.616;2023-05-27T10:29:10;97303.47;;;20.30;44.04
57628;BME280;43451;49.060;10.616;2023-05-27T10:31:46;97308.00;;;20.37;42.22
57628;BME280;43451;49.060;10.616;2023-05-27T10:34:12;97304.13;;;20.34;41.59
57628;BME280;43451;49.060;10.616;2023-05-27T10:36:38;97299.94;;;20.43;43.21
57628;BME280;43451;49.060;10.616;2023-05-27T10:39:17;97302.47;;;20.50;39.93
57628;BME280;43451;49.060;10.616;2023-05-27T10:41:49;97296.97;;;20.24;39.94
57628;BME280;43451;49.060;10.616;2023-05-27T10:44:28;97291.97;;;20.19;40.98
57628;BME280;43451;49.060;10.616;2023-05-27T10:47:09;97293.50;;;20.20;42.32
57628;BME280;43451;49.060;10.616;2023-05-27T10:49:46;97290.75;;;20.20;41.15
57628;BME280;43451;49.060;10.616;2023-05-27T10:52:13;97286.13;;;20.17;42.79
57628;BME280;43451;49.060;10.616;2023-05-27T10:54:40;97285.78;;;20.40;42.57
57628;BME280;43451;49.060;10.616;2023-05-27T10:57:07;97283.69;;;20.32;40.40
57628;BME280;43451;49.060;10.616;2023-05-27T10:59:47;97290.56;;;20.53;42.26
57628;BME280;43451;49.060;10.616;2023-05-27T11:02:13;97289.97;;;20.58;41.67
57628;BME280;43451;49.060;10.616;2023-05-27T11:04:39;97287.19;;;20.71;41.76
57628;BME280;43451;49.060;10.616;2023-05-27T11:07:06;97287.19;;;20.71;40.59
57628;BME280;43451;49.060;10.616;2023-05-27T11:09:43;97284.66;;;20.76;40.32
57628;BME280;43451;49.060;10.616;2023-05-27T11:12:12;97285.09;;;20.88;42.17
57628;BME280;43451;49.060;10.616;2023-05-27T11:14:38;97272.97;;;20.72;40.47
57628;BME280;43451;49.060;10.616;2023-05-27T11:17:03;97270.53;;;20.74;41.28
57628;BME280;43451;49.060;10.616;2023-05-27T11:19:29;97262.56;;;20.76;42.45
57628;BME280;43451;49.060;10.616;2023-05-27T11:21:55;97263.53;;;20.82;42.54
57628;BME280;43451;49.060;10.616;2023-05-27T11:24:20;97262.91;;;20.78;39.76
57628;BME280;43451;49.060;10.616;2023-05-27T11:26:47;97267.53;;;20.81;40.15
57628;BME280;43451;49.060;10.616;2023-05-27T11:29:16;97257.03;;;20.76;41.20
57628;BME280;43451;49.060;10.616;2023-05-27T11:31:47;97257.47;;;20.88;40.43
57628;BME280;43451;49.060;10.616;2023-05-27T11:34:13;97250.84;;;20.85;39.31
57628;BME280;43451;49.060;10.616;2023-05-27T11:36:40;97242.66;;;20.81;39.47
57628;BME280;43451;49.060;10.616;2023-05-27T11:39:10;97242.88;;;20.87;41.68
57628;BME280;43451;49.060;10.616;2023-05-27T11:41:50;97236.75;;;20.92;39.04
57628;BME280;43451;49.060;10.616;2023-05-27T11:44:17;97232.69;;;20.97;38.86
57628;BME280;43451;49.060;10.616;2023-05-27T11:46:44;97239.03;;;21.06;39.10
57628;BME280;43451;49.060;10.616;2023-05-27T11:49:15;97236.28;;;21.28;38.71
57628;BME280;43451;49.060;10.616;2023-05-27T11:51:45;97231.28;;;21.36;40.45
57628;BME280;43451;49.060;10.616;2023-05-27T11:54:24;97220.66;;;21.35;37.95
57628;BME280;43451;49.060;10.616;2023-05-27T11:56:50;97225.13;;;21.54;36.64
57628;BME280;43451;49.060;10.616;2023-05-27T11:59:17;97221.38;;;21.48;39.09
57628;BME280;43451;49.060;10.616;2023-05-27T12:01:43;97222.66;;;21.56;38.53
57628;BME280;43451;49.060;10.616;2023-05-27T12:04:09;97223.94;;;21.64;37.87
57628;BME280;43451;49.060;10.616;2023-05-27T12:06:36;97226.66;;;21.55;36.82
57628;BME280;43451;49.060;10.616;2023-05-27T12:09:04;97207.34;;;21.64;38.68
57628;BME280;43451;49.060;10.616;2023-05-27T12:11:31;97203.72;;;21.76;39.16
57628;BME280;43451;49.060;10.616;2023-05-27T12:13:57;97200.44;;;21.69;35.77
57628;BME280;43451;49.060;10.616;2023-05-27T12:16:23;97201.53;;;21.71;36.34
57628;BME280;43451;49.060;10.616;2023-05-27T12:18:48;97199.94;;;21.61;38.52
57628;BME280;43451;49.060;10.616;2023-05-27T12:21:17;97196.81;;;21.81;37.34
57628;BME280;43451;49.060;10.616;2023-05-27T12:23:43;97189.91;;;21.86;38.20
57628;BME280;43451;49.060;10.616;2023-05-27T12:26:09;97188.66;;;21.77;37.81
57628;BME280;43451;49.060;10.616;2023-05-27T12:28:38;97185.31;;;21.83;39.61
57628;BME280;43451;49.060;10.616;2023-05-27T12:31:05;97191.16;;;21.94;40.32
57628;BME280;43451;49.060;10.616;2023-05-27T12:33:31;97178.91;;;22.04;39.03
57628;BME280;43451;49.060;10.616;2023-05-27T12:35:57;97182.28;;;21.99;37.66
57628;BME280;43451;49.060;10.616;2023-05-27T12:38:23;97177.72;;;22.14;39.58
57628;BME280;43451;49.060;10.616;2023-05-27T12:40:49;97179.47;;;22.30;39.15
57628;BME280;43451;49.060;10.616;2023-05-27T12:43:15;97178.72;;;22.30;37.15
57628;BME280;43451;49.060;10.616;2023-05-27T12:45:41;97179.47;;;22.30;39.92
57628;BME280;43451;49.060;10.616;2023-05-27T12:48:06;97171.03;;;22.43;37.47
57628;BME280;43451;49.060;10.616;2023-05-27T12:50:32;97176.09;;;22.35;34.95
57628;BME280;43451;49.060;10.616;2023-05-27T12:52:58;97159.16;;;22.24;34.96
57628;BME280;43451;49.060;10.616;2023-05-27T12:55:25;97160.69;;;22.25;37.16
57628;BME280;43451;49.060;10.616;2023-05-27T12:57:52;97166.22;;;22.25;35.45
57628;BME280;43451;49.060;10.616;2023-05-27T13:00:19;97161.75;;;22.18;37.17
57628;BME280;43451;49.060;10.616;2023-05-27T13:02:46;97155.31;;;22.21;39.09
57628;BME280;43451;49.060;10.616;2023-05-27T13:05:16;97152.53;;;22.21;35.63
57628;BME280;43451;49.060;10.616;2023-05-27T13:07:53;97150.63;;;22.09;36.12
57628;BME280;43451;49.060;10.616;2023-05-27T13:10:20;97138.31;;;22.10;37.40
57628;BME280;43451;49.060;10.616;2023-05-27T13:12:47;97142.22;;;22.22;38.07
57628;BME280;43451;49.060;10.616;2023-05-27T13:15:13;97150.38;;;22.25;36.60
57628;BME280;43451;49.060;10.616;2023-05-27T13:17:38;97134.53;;;22.26;34.80
57628;BME280;43451;49.060;10.616;2023-05-27T13:20:05;97134.19;;;22.15;36.32
57628;BME280;43451;49.060;10.616;2023-05-27T13:22:31;97139.94;;;22.30;37.03
57628;BME280;43451;49.060;10.616;2023-05-27T13:24:56;97133.47;;;22.33;34.93
57628;BME280;43451;49.060;10.616;2023-05-27T13:27:22;97124.88;;;22.31;36.37
57628;BME280;43451;49.060;10.616;2023-05-27T13:29:48;97124.38;;;22.23;35.49
57628;BME280;43451;49.060;10.616;2023-05-27T13:32:13;97118.56;;;22.30;38.10
57628;BME280;43451;49.060;10.616;2023-05-27T13:34:40;97121.19;;;22.43;37.10
57628;BME280;43451;49.060;10.616;2023-05-27T13:37:05;97121.81;;;22.56;36.66
57628;BME280;43451;49.060;10.616;2023-05-27T13:39:31;97114.09;;;22.69;35.68
57628;BME280;43451;49.060;10.616;2023-05-27T13:41:58;97109.81;;;22.68;36.14
57628;BME280;43451;49.060;10.616;2023-05-27T13:44:24;97107.97;;;22.65;35.49
57628;BME280;43451;49.060;10.616;2023-05-27T13:46:50;97107.19;;;22.56;36.33
57628;BME280;43451;49.060;10.616;2023-05-27T13:49:16;97102.09;;;22.54;36.90